createdAt,value
2023-07-25T00:00:30.694Z,20.19
2023-07-25T00:03:19.032Z,20.12
2023-07-25T00:05:47.716Z,20.13
2023-07-25T00:08:16.088Z,20.14
2023-07-25T00:10:44.671Z,20.16
2023-07-25T00:13:14.423Z,20.26
2023-07-25T00:15:43.085Z,20.06
2023-07-25T00:18:11.372Z,20.08
2023-07-25T00:20:39.866Z,20.03
2023-07-25T00:23:08.317Z,20.12
2023-07-25T00:25:37.068Z,20.07
2023-07-25T00:28:05.566Z,20.08
2023-07-25T00:30:35.751Z,20.31
2023-07-25T00:33:04.210Z,20.10
2023-07-25T00:35:33.112Z,20.13
2023-07-25T00:38:01.384Z,20.13
2023-07-25T00:40:30.246Z,20.03
2023-07-25T00:43:02.299Z,20.35
2023-07-25T00:45:32.341Z,20.34
2023-07-25T00:48:02.314Z,20.50
2023-07-25T00:50:31.926Z,20.37
2023-07-25T00:53:01.844Z,20.41
2023-07-25T00:55:32.241Z,20.25
2023-07-25T00:58:00.908Z,20.23
2023-07-25T01:00:29.956Z,20.12
2023-07-25T01:02:58.746Z,20.18
2023-07-25T01:05:30.906Z,20.43
2023-07-25T01:08:01.924Z,20.11
2023-07-25T01:10:30.712Z,20.15
2023-07-25T01:12:59.330Z,20.05
2023-07-25T01:15:28.686Z,20.17
2023-07-25T01:17:57.203Z,20.03
2023-07-25T01:20:26.786Z,20.12
2023-07-25T01:22:57.254Z,20.33
2023-07-25T01:25:27.817Z,20.21
2023-07-25T01:27:56.198Z,19.99
2023-07-25T01:30:25.039Z,20.01
2023-07-25T01:32:54.114Z,20.08
2023-07-25T01:35:23.085Z,20.06
2023-07-25T01:37:51.615Z,19.97
2023-07-25T01:40:20.564Z,20.11
2023-07-25T01:42:50.452Z,20.21
2023-07-25T01:45:19.520Z,20.07
2023-07-25T01:47:48.202Z,20.06
2023-07-25T01:50:17.644Z,20.05
2023-07-25T01:52:46.090Z,19.90
2023-07-25T01:55:14.950Z,19.98
2023-07-25T01:57:43.613Z,20.05
2023-07-25T02:00:14.753Z,20.30
2023-07-25T02:02:43.242Z,19.97
2023-07-25T02:05:12.205Z,19.94
2023-07-25T02:07:40.614Z,19.96
2023-07-25T02:10:10.525Z,20.09
2023-07-25T02:12:38.959Z,19.90
2023-07-25T02:15:08.683Z,20.12
2023-07-25T02:17:38.395Z,20.25
2023-07-25T02:20:08.680Z,20.21
2023-07-25T02:22:37.141Z,20.11
2023-07-25T02:25:06.759Z,20.06
2023-07-25T02:27:35.732Z,20.09
2023-07-25T02:30:05.041Z,20.05
2023-07-25T02:32:33.605Z,19.92
2023-07-25T02:35:03.898Z,20.22
2023-07-25T02:37:32.436Z,20.00
2023-07-25T02:40:01.301Z,20.02
2023-07-25T02:42:29.820Z,19.91
2023-07-25T02:44:58.604Z,20.04
2023-07-25T02:47:27.057Z,20.00
2023-07-25T02:49:55.669Z,20.00
2023-07-25T02:52:25.642Z,20.31
2023-07-25T02:54:54.367Z,20.15
2023-07-25T02:57:22.846Z,20.09
2023-07-25T02:59:51.492Z,20.09
2023-07-25T03:02:19.970Z,20.07
2023-07-25T03:04:48.958Z,20.12
2023-07-25T03:07:17.282Z,20.17
2023-07-25T03:09:47.173Z,20.44
2023-07-25T03:12:15.939Z,20.12
2023-07-25T03:14:44.452Z,20.07
2023-07-25T03:17:12.963Z,20.06
2023-07-25T03:19:41.572Z,20.18
2023-07-25T03:22:09.832Z,19.95
2023-07-25T03:24:38.484Z,20.08
2023-07-25T03:27:08.593Z,20.36
2023-07-25T03:29:37.350Z,20.06
2023-07-25T03:32:05.838Z,19.97
2023-07-25T03:34:34.705Z,20.09
2023-07-25T03:37:02.996Z,20.00
2023-07-25T03:39:31.868Z,20.02
2023-07-25T03:42:00.488Z,20.01
2023-07-25T03:44:30.620Z,20.29
2023-07-25T03:46:58.854Z,19.97
2023-07-25T03:49:27.354Z,20.06
2023-07-25T03:51:56.041Z,20.00
2023-07-25T03:54:26.586Z,20.06
2023-07-25T03:56:55.028Z,20.04
2023-07-25T03:59:23.860Z,20.08
2023-07-25T04:01:53.775Z,20.26
2023-07-25T04:04:22.548Z,20.13
2023-07-25T04:06:51.023Z,20.22
2023-07-25T04:09:19.582Z,20.30
2023-07-25T04:11:47.959Z,20.44
2023-07-25T04:14:16.479Z,20.62
2023-07-25T04:16:44.745Z,20.87
2023-07-25T04:19:14.754Z,21.44
2023-07-25T04:21:43.027Z,21.50
2023-07-25T04:24:11.468Z,21.60
2023-07-25T04:26:39.726Z,21.78
2023-07-25T04:29:08.231Z,21.88
2023-07-25T04:31:36.452Z,22.14
2023-07-25T04:34:04.977Z,22.39
2023-07-25T04:36:34.945Z,22.94
2023-07-25T04:39:03.639Z,22.96
2023-07-25T04:41:32.184Z,23.32
2023-07-25T04:44:00.946Z,23.59
2023-07-25T04:46:31.592Z,23.88
2023-07-25T04:49:00.104Z,25.04
2023-07-25T04:51:28.592Z,24.51
2023-07-25T04:53:58.443Z,24.68
2023-07-25T04:56:26.733Z,24.47
2023-07-25T04:58:55.472Z,24.47
2023-07-25T05:01:23.889Z,24.70
2023-07-25T05:03:52.524Z,25.09
2023-07-25T05:06:20.809Z,25.66
2023-07-25T05:08:49.357Z,26.11
2023-07-25T05:11:19.227Z,26.99
2023-07-25T05:13:47.828Z,27.20
2023-07-25T05:16:16.531Z,27.77
2023-07-25T05:18:45.160Z,27.79
2023-07-25T05:21:13.351Z,28.07
2023-07-25T05:23:41.778Z,28.40
2023-07-25T05:26:10.114Z,28.75
2023-07-25T05:28:39.957Z,29.25
2023-07-25T05:31:08.251Z,29.22
2023-07-25T05:33:37.068Z,29.63
2023-07-25T05:36:05.914Z,29.98
2023-07-25T05:38:34.616Z,30.36
2023-07-25T05:41:03.081Z,30.92
2023-07-25T05:43:31.626Z,31.51
2023-07-25T05:46:01.422Z,32.19
2023-07-25T05:48:30.064Z,32.30
2023-07-25T05:50:58.321Z,32.58
2023-07-25T05:53:26.990Z,32.98
2023-07-25T05:55:55.204Z,33.42
2023-07-25T05:58:23.897Z,33.78
2023-07-25T06:00:52.353Z,34.15
2023-07-25T06:03:23.044Z,34.96
2023-07-25T06:05:51.499Z,35.34
2023-07-25T06:08:20.195Z,35.49
2023-07-25T06:10:48.627Z,35.79
2023-07-25T06:13:17.440Z,35.96
2023-07-25T06:15:46.769Z,36.13
2023-07-25T06:18:15.442Z,36.54
2023-07-25T06:20:45.213Z,36.94
2023-07-25T06:23:13.855Z,36.96
2023-07-25T06:25:42.283Z,37.58
2023-07-25T06:28:12.814Z,38.18
2023-07-25T06:30:41.075Z,37.77
2023-07-25T06:33:09.859Z,37.38
2023-07-25T06:35:38.165Z,37.67
2023-07-25T06:38:08.043Z,38.65
2023-07-25T06:40:36.400Z,38.79
2023-07-25T06:43:05.057Z,39.35
2023-07-25T06:45:33.378Z,39.89
2023-07-25T06:48:02.040Z,40.47
2023-07-25T06:50:33.993Z,40.66
2023-07-25T06:53:02.706Z,40.57
2023-07-25T06:55:32.607Z,40.85
2023-07-25T06:58:01.117Z,40.83
2023-07-25T07:00:29.653Z,41.23
2023-07-25T07:02:58.386Z,41.22
2023-07-25T07:05:30.700Z,41.31
2023-07-25T07:07:59.966Z,41.46
2023-07-25T07:10:28.733Z,41.33
2023-07-25T07:12:58.694Z,41.42
2023-07-25T07:15:27.424Z,40.83
2023-07-25T07:17:56.040Z,41.32
2023-07-25T07:20:24.490Z,42.48
2023-07-25T07:22:53.269Z,43.40
2023-07-25T07:25:21.612Z,43.41
2023-07-25T07:27:50.244Z,42.37
2023-07-25T07:30:20.295Z,41.20
2023-07-25T07:32:49.015Z,39.72
2023-07-25T07:35:17.311Z,39.38
2023-07-25T07:37:46.015Z,40.57
2023-07-25T07:40:14.698Z,41.17
2023-07-25T07:42:43.545Z,42.02
2023-07-25T07:45:12.220Z,42.87
2023-07-25T07:47:42.473Z,44.27
2023-07-25T07:50:11.306Z,45.13
2023-07-25T07:52:43.361Z,45.51
2023-07-25T07:55:12.822Z,45.17
2023-07-25T07:57:42.916Z,44.24
2023-07-25T08:00:13.031Z,44.29
2023-07-25T08:02:43.494Z,45.51
2023-07-25T08:05:13.042Z,46.60
2023-07-25T08:07:42.358Z,46.68
2023-07-25T08:10:11.341Z,47.45
2023-07-25T08:12:40.103Z,48.06
2023-07-25T08:15:09.217Z,49.06
2023-07-25T08:17:38.078Z,49.33
2023-07-25T08:20:09.331Z,49.65
2023-07-25T08:22:37.925Z,47.90
2023-07-25T08:25:07.122Z,46.77
2023-07-25T08:27:35.721Z,46.83
2023-07-25T08:30:04.325Z,47.50
2023-07-25T08:32:33.140Z,48.78
2023-07-25T08:35:01.713Z,49.41
2023-07-25T08:37:31.836Z,49.97
2023-07-25T08:40:00.465Z,49.93
2023-07-25T08:42:32.649Z,50.51
2023-07-25T08:45:02.173Z,49.82
2023-07-25T08:47:30.938Z,48.93
2023-07-25T08:50:00.036Z,48.71
2023-07-25T08:52:30.226Z,47.56
2023-07-25T08:55:00.087Z,45.08
2023-07-25T08:57:29.802Z,42.30
2023-07-25T08:59:58.500Z,40.83
2023-07-25T09:02:28.301Z,39.88
2023-07-25T09:04:56.898Z,39.53
2023-07-25T09:07:25.696Z,40.84
2023-07-25T09:09:53.931Z,42.03
2023-07-25T09:12:24.460Z,43.75
2023-07-25T09:14:53.742Z,45.46
2023-07-25T09:17:24.127Z,46.74
2023-07-25T09:19:52.980Z,47.55
2023-07-25T09:22:29.189Z,48.74
2023-07-25T09:24:58.490Z,49.21
2023-07-25T09:27:29.469Z,49.62
2023-07-25T09:29:58.194Z,48.31
2023-07-25T09:32:29.941Z,46.91
2023-07-25T09:35:01.279Z,45.09
2023-07-25T09:37:30.993Z,43.71
2023-07-25T09:40:00.030Z,43.35
2023-07-25T09:42:30.562Z,44.15
2023-07-25T09:44:59.474Z,44.16
2023-07-25T09:47:30.056Z,44.89
2023-07-25T09:49:58.914Z,43.89
2023-07-25T09:52:28.289Z,41.21
2023-07-25T09:54:57.099Z,39.40
2023-07-25T09:57:26.307Z,39.41
2023-07-25T09:59:57.138Z,40.56
2023-07-25T10:02:27.530Z,41.53
2023-07-25T10:04:59.677Z,43.01
2023-07-25T10:07:29.229Z,44.33
2023-07-25T10:09:59.462Z,44.48
2023-07-25T10:12:28.741Z,44.58
2023-07-25T10:14:59.150Z,44.24
2023-07-25T10:17:28.777Z,44.56
2023-07-25T10:19:58.310Z,44.31
2023-07-25T10:22:38.152Z,44.97
2023-07-25T10:25:11.663Z,46.45
2023-07-25T10:27:40.749Z,46.88
2023-07-25T10:30:25.203Z,47.07
2023-07-25T10:32:55.818Z,45.74
2023-07-25T10:35:44.605Z,44.63
2023-07-25T10:38:15.231Z,42.09
2023-07-25T10:40:58.611Z,41.47
2023-07-25T10:43:32.413Z,40.17
2023-07-25T10:46:05.386Z,38.64
2023-07-25T10:48:38.614Z,37.46
2023-07-25T10:51:09.016Z,36.46
2023-07-25T10:53:37.916Z,35.65
2023-07-25T10:56:17.694Z,35.50
2023-07-25T10:59:06.412Z,35.20
2023-07-25T11:01:53.799Z,35.05
2023-07-25T11:04:30.951Z,34.67
2023-07-25T11:07:00.701Z,34.17
2023-07-25T11:09:29.754Z,33.93
2023-07-25T11:11:58.209Z,33.93
2023-07-25T11:14:26.858Z,33.75
2023-07-25T11:16:57.445Z,33.66
2023-07-25T11:19:29.884Z,33.61
2023-07-25T11:21:58.505Z,33.19
2023-07-25T11:24:27.110Z,32.94
2023-07-25T11:26:55.416Z,32.72
2023-07-25T11:29:24.065Z,32.53
2023-07-25T11:31:52.565Z,32.21
2023-07-25T11:34:22.728Z,32.03
2023-07-25T11:36:51.075Z,31.37
2023-07-25T11:39:20.289Z,31.09
2023-07-25T11:41:48.880Z,31.02
2023-07-25T11:44:19.088Z,31.06
2023-07-25T11:46:50.871Z,31.07
2023-07-25T11:49:35.818Z,30.93
2023-07-25T11:52:11.136Z,31.02
2023-07-25T11:54:40.195Z,30.76
2023-07-25T11:57:12.231Z,30.97
2023-07-25T11:59:42.392Z,30.81
2023-07-25T12:02:12.450Z,30.64
2023-07-25T12:04:46.329Z,30.95
2023-07-25T12:07:17.456Z,30.97
2023-07-25T12:09:54.048Z,31.22
2023-07-25T12:12:23.030Z,31.20
2023-07-25T12:14:59.116Z,31.49
2023-07-25T12:17:43.079Z,31.49
2023-07-25T12:20:16.485Z,31.18
2023-07-25T12:22:46.619Z,30.82
2023-07-25T12:25:19.948Z,30.76
2023-07-25T12:27:49.633Z,30.31
2023-07-25T12:30:18.698Z,29.88
2023-07-25T12:32:47.342Z,29.38
2023-07-25T12:35:16.241Z,29.14
2023-07-25T12:37:46.166Z,29.04
2023-07-25T12:40:14.920Z,28.67
2023-07-25T12:42:43.426Z,28.81
2023-07-25T12:45:12.580Z,28.78
2023-07-25T12:47:41.268Z,28.60
2023-07-25T12:50:11.114Z,28.27
2023-07-25T12:52:39.817Z,27.86
2023-07-25T12:55:10.640Z,27.87
2023-07-25T12:57:39.445Z,27.57
2023-07-25T13:00:09.853Z,27.50
2023-07-25T13:02:39.101Z,27.19
2023-07-25T13:05:09.341Z,27.19
2023-07-25T13:07:38.052Z,27.04
2023-07-25T13:10:08.687Z,27.07
2023-07-25T13:12:39.098Z,27.13
2023-07-25T13:15:09.221Z,27.39
2023-07-25T13:17:37.837Z,27.10
2023-07-25T13:20:08.569Z,27.56
2023-07-25T13:22:37.508Z,27.52
2023-07-25T13:25:07.270Z,27.61
2023-07-25T13:27:35.675Z,27.14
2023-07-25T13:30:06.705Z,27.60
2023-07-25T13:32:35.459Z,27.25
2023-07-25T13:35:04.475Z,27.20
2023-07-25T13:37:33.270Z,27.19
2023-07-25T13:40:02.068Z,27.16
2023-07-25T13:42:30.822Z,27.08
2023-07-25T13:44:59.709Z,26.91
2023-07-25T13:47:29.613Z,27.05
2023-07-25T13:49:59.651Z,26.70
2023-07-25T13:52:28.189Z,26.57
2023-07-25T13:54:57.750Z,26.45
2023-07-25T13:57:33.630Z,26.13
2023-07-25T14:00:05.823Z,25.95
2023-07-25T14:02:36.490Z,25.94
2023-07-25T14:05:06.256Z,25.51
2023-07-25T14:07:34.861Z,25.32
2023-07-25T14:10:03.639Z,25.18
2023-07-25T14:12:32.183Z,25.02
2023-07-25T14:15:02.351Z,24.84
2023-07-25T14:17:31.280Z,24.74
2023-07-25T14:20:01.475Z,24.85
2023-07-25T14:22:30.285Z,24.58
2023-07-25T14:24:59.461Z,24.59
2023-07-25T14:27:28.278Z,24.55
2023-07-25T14:29:57.190Z,24.42
2023-07-25T14:32:26.976Z,24.59
2023-07-25T14:34:57.112Z,24.34
2023-07-25T14:37:34.091Z,24.42
2023-07-25T14:40:14.515Z,24.44
2023-07-25T14:42:42.958Z,24.18
2023-07-25T14:45:12.053Z,24.24
2023-07-25T14:47:41.128Z,24.23
2023-07-25T14:50:10.836Z,24.11
2023-07-25T14:52:40.741Z,24.18
2023-07-25T14:55:10.303Z,24.08
2023-07-25T14:57:38.828Z,23.89
2023-07-25T15:00:10.567Z,24.04
2023-07-25T15:02:39.561Z,23.91
2023-07-25T15:05:09.157Z,23.93
2023-07-25T15:07:37.629Z,23.62
2023-07-25T15:10:09.385Z,23.86
2023-07-25T15:12:37.924Z,23.48
2023-07-25T15:15:08.979Z,23.51
2023-07-25T15:17:37.767Z,23.28
2023-07-25T15:20:10.518Z,23.43
2023-07-25T15:22:39.619Z,23.30
2023-07-25T15:25:10.418Z,23.38
2023-07-25T15:27:38.971Z,23.02
2023-07-25T15:30:08.912Z,23.22
2023-07-25T15:32:37.868Z,23.06
2023-07-25T15:35:10.073Z,23.40
2023-07-25T15:37:39.144Z,23.06
2023-07-25T15:40:11.345Z,23.28
2023-07-25T15:42:40.077Z,23.30
2023-07-25T15:45:09.904Z,23.49
2023-07-25T15:47:38.482Z,23.54
2023-07-25T15:50:08.262Z,23.86
2023-07-25T15:52:37.055Z,24.11
2023-07-25T15:55:06.537Z,24.45
2023-07-25T15:57:36.447Z,24.88
2023-07-25T16:00:07.524Z,24.72
2023-07-25T16:02:36.439Z,24.42
2023-07-25T16:05:06.239Z,24.22
2023-07-25T16:07:35.977Z,23.99
2023-07-25T16:10:06.568Z,23.77
2023-07-25T16:12:36.848Z,23.72
2023-07-25T16:15:06.706Z,23.36
2023-07-25T16:17:35.418Z,22.95
2023-07-25T16:20:04.858Z,22.60
2023-07-25T16:22:33.630Z,22.42
2023-07-25T16:25:02.680Z,22.37
2023-07-25T16:27:31.356Z,22.38
2023-07-25T16:30:01.925Z,22.35
2023-07-25T16:32:30.657Z,21.61
2023-07-25T16:35:01.647Z,21.50
2023-07-25T16:37:30.236Z,21.32
2023-07-25T16:39:59.172Z,21.06
2023-07-25T16:42:27.574Z,21.14
2023-07-25T16:44:56.999Z,21.33
2023-07-25T16:47:26.983Z,22.01
2023-07-25T16:49:55.801Z,21.68
2023-07-25T16:52:24.474Z,21.77
2023-07-25T16:54:53.192Z,21.79
2023-07-25T16:57:21.764Z,21.95
2023-07-25T16:59:50.947Z,22.16
2023-07-25T17:02:19.608Z,22.21
2023-07-25T17:04:49.808Z,22.48
2023-07-25T17:07:18.564Z,22.20
2023-07-25T17:09:47.351Z,22.16
2023-07-25T17:12:15.796Z,22.28
2023-07-25T17:14:44.500Z,22.42
2023-07-25T17:17:13.891Z,22.33
2023-07-25T17:19:42.873Z,22.42
2023-07-25T17:22:12.800Z,22.61
2023-07-25T17:24:41.821Z,22.39
2023-07-25T17:27:10.261Z,22.32
2023-07-25T17:29:39.185Z,22.25
2023-07-25T17:32:08.147Z,22.15
2023-07-25T17:34:37.028Z,22.26
2023-07-25T17:37:07.898Z,22.39
2023-07-25T17:39:37.913Z,23.03
2023-07-25T17:42:06.411Z,22.37
2023-07-25T17:44:35.189Z,22.38
2023-07-25T17:47:04.291Z,22.43
2023-07-25T17:49:34.129Z,22.50
2023-07-25T17:52:02.499Z,22.48
2023-07-25T17:54:31.237Z,22.43
2023-07-25T17:57:01.117Z,22.71
2023-07-25T17:59:30.178Z,22.47
2023-07-25T18:01:58.719Z,22.36
2023-07-25T18:04:27.621Z,22.37
2023-07-25T18:06:56.220Z,22.08
2023-07-25T18:09:25.991Z,21.92
2023-07-25T18:11:54.593Z,21.86
2023-07-25T18:14:24.932Z,21.96
2023-07-25T18:16:53.612Z,21.56
2023-07-25T18:19:22.324Z,21.33
2023-07-25T18:21:52.964Z,21.47
2023-07-25T18:24:21.875Z,21.15
2023-07-25T18:26:51.624Z,21.02
2023-07-25T18:29:20.616Z,21.03
2023-07-25T18:31:50.508Z,21.10
2023-07-25T18:34:19.543Z,21.13
2023-07-25T18:36:48.423Z,20.63
2023-07-25T18:39:17.280Z,20.43
2023-07-25T18:41:45.795Z,20.46
2023-07-25T18:44:14.727Z,20.43
2023-07-25T18:46:43.502Z,20.34
2023-07-25T18:49:13.904Z,20.55
2023-07-25T18:51:42.574Z,20.31
2023-07-25T18:54:11.338Z,20.28
2023-07-25T18:56:40.028Z,20.34
2023-07-25T18:59:08.849Z,20.14
2023-07-25T19:01:37.406Z,20.06
2023-07-25T19:04:06.733Z,20.01
2023-07-25T19:06:36.708Z,20.14
2023-07-25T19:09:05.852Z,20.07
2023-07-25T19:11:34.298Z,19.87
2023-07-25T19:14:03.329Z,19.97
2023-07-25T19:16:32.395Z,19.99
2023-07-25T19:19:01.803Z,20.16
2023-07-25T19:21:30.453Z,19.96
2023-07-25T19:24:00.791Z,20.19
2023-07-25T19:26:29.259Z,20.02
2023-07-25T19:29:00.451Z,20.04
2023-07-25T19:31:30.118Z,20.07
2023-07-25T19:33:58.904Z,19.98
2023-07-25T19:36:27.368Z,20.13
2023-07-25T19:38:56.176Z,20.00
2023-07-25T19:41:26.041Z,20.20
2023-07-25T19:43:54.843Z,19.95
2023-07-25T19:46:23.595Z,20.07
2023-07-25T19:48:52.571Z,19.90
2023-07-25T19:51:21.510Z,19.84
2023-07-25T19:53:52.150Z,19.87
2023-07-25T19:56:20.642Z,19.99
2023-07-25T19:58:51.013Z,19.99
2023-07-25T20:01:19.765Z,19.70
2023-07-25T20:03:48.866Z,19.83
2023-07-25T20:06:17.540Z,19.69
2023-07-25T20:08:46.425Z,19.82
2023-07-25T20:11:15.127Z,19.89
2023-07-25T20:13:43.876Z,19.85
2023-07-25T20:16:13.750Z,20.04
2023-07-25T20:18:43.317Z,19.82
2023-07-25T20:21:15.184Z,19.99
2023-07-25T20:23:43.959Z,19.67
2023-07-25T20:26:13.376Z,19.64
2023-07-25T20:28:42.274Z,19.56
2023-07-25T20:31:11.118Z,19.73
2023-07-25T20:33:41.524Z,19.95
2023-07-25T20:36:10.243Z,19.58
2023-07-25T20:38:38.989Z,19.56
2023-07-25T20:41:07.603Z,19.60
2023-07-25T20:43:36.420Z,19.55
2023-07-25T20:46:05.422Z,19.56
2023-07-25T20:48:36.071Z,19.63
2023-07-25T20:51:05.979Z,19.83
2023-07-25T20:53:34.869Z,19.59
2023-07-25T20:56:03.604Z,19.73
2023-07-25T20:58:32.250Z,19.39
2023-07-25T21:01:01.189Z,19.55
2023-07-25T21:03:30.570Z,19.53
2023-07-25T21:06:00.201Z,19.52
2023-07-25T21:08:30.178Z,19.74
2023-07-25T21:10:59.770Z,19.51
2023-07-25T21:13:28.276Z,19.39
2023-07-25T21:15:57.653Z,19.54
2023-07-25T21:18:26.228Z,19.37
2023-07-25T21:20:55.044Z,19.60
2023-07-25T21:23:25.540Z,19.64
2023-07-25T21:25:55.844Z,19.88
2023-07-25T21:28:24.288Z,19.45
2023-07-25T21:30:54.222Z,19.48
2023-07-25T21:33:25.219Z,19.50
2023-07-25T21:36:09.268Z,20.00
2023-07-25T21:38:37.908Z,19.55
2023-07-25T21:41:09.258Z,19.94
2023-07-25T21:43:38.332Z,19.86
2023-07-25T21:46:07.482Z,19.70
2023-07-25T21:48:36.252Z,19.64
2023-07-25T21:51:05.356Z,19.73
2023-07-25T21:53:34.305Z,19.68
2023-07-25T21:56:03.370Z,19.82
2023-07-25T21:58:33.248Z,20.06
2023-07-25T22:01:02.507Z,19.88
2023-07-25T22:03:31.599Z,19.87
2023-07-25T22:06:02.039Z,20.39
2023-07-25T22:08:30.998Z,19.97
2023-07-25T22:10:59.898Z,19.98
2023-07-25T22:13:28.633Z,19.89
2023-07-25T22:15:59.113Z,20.00
2023-07-25T22:18:27.794Z,19.89
2023-07-25T22:20:56.742Z,20.00
2023-07-25T22:23:25.129Z,19.94
2023-07-25T22:26:00.682Z,20.31
2023-07-25T22:28:29.187Z,19.94
2023-07-25T22:31:01.693Z,20.26
2023-07-25T22:33:30.214Z,19.97
2023-07-25T22:35:58.996Z,19.90
2023-07-25T22:38:27.452Z,19.77
2023-07-25T22:40:56.193Z,19.97
2023-07-25T22:43:24.718Z,19.95
2023-07-25T22:45:53.674Z,19.76
2023-07-25T22:48:23.531Z,19.92
2023-07-25T22:50:52.265Z,19.65
2023-07-25T22:53:20.701Z,19.65
2023-07-25T22:55:49.563Z,19.57
2023-07-25T22:58:18.087Z,19.48
2023-07-25T23:00:48.027Z,19.77
2023-07-25T23:03:16.879Z,19.52
2023-07-25T23:05:48.524Z,19.75
2023-07-25T23:08:16.795Z,20.35
2023-07-25T23:10:45.767Z,19.69
2023-07-25T23:13:14.327Z,19.38
2023-07-25T23:15:44.145Z,19.50
2023-07-25T23:18:12.750Z,19.35
2023-07-25T23:20:41.667Z,19.25
2023-07-25T23:23:11.775Z,19.54
2023-07-25T23:25:40.527Z,19.33
2023-07-25T23:28:08.875Z,19.41
2023-07-25T23:30:37.758Z,19.34
2023-07-25T23:33:06.159Z,19.25
2023-07-25T23:35:35.001Z,19.33
2023-07-25T23:38:03.829Z,19.26
2023-07-25T23:40:33.954Z,19.52
2023-07-25T23:43:03.348Z,19.33
2023-07-25T23:45:34.001Z,19.39
2023-07-25T23:48:02.385Z,19.52
2023-07-25T23:50:31.074Z,19.49
2023-07-25T23:52:59.416Z,19.48
2023-07-25T23:55:28.171Z,19.62
2023-07-25T23:57:57.895Z,19.92
